createdAt,value
2019-02-16T00:01:56.629Z,87.79
2019-02-16T00:04:29.928Z,88.04
2019-02-16T00:07:03.208Z,88.61
2019-02-16T00:09:36.508Z,88.79
2019-02-16T00:12:10.811Z,88.03
2019-02-16T00:14:44.186Z,87.40
2019-02-16T00:17:18.303Z,87.12
2019-02-16T00:19:51.596Z,88.12
2019-02-16T00:22:24.887Z,88.48
2019-02-16T00:24:58.002Z,88.54
2019-02-16T00:27:32.274Z,87.92
2019-02-16T00:30:06.821Z,88.21
2019-02-16T00:32:40.215Z,87.79
2019-02-16T00:35:13.538Z,87.58
2019-02-16T00:37:46.838Z,88.03
2019-02-16T00:40:20.126Z,88.11
2019-02-16T00:42:53.407Z,87.88
2019-02-16T00:45:26.707Z,88.22
2019-02-16T00:47:59.991Z,88.13
2019-02-16T00:50:33.300Z,87.93
2019-02-16T00:53:06.576Z,88.10
2019-02-16T00:55:39.875Z,88.24
2019-02-16T00:58:13.155Z,88.49
2019-02-16T01:00:46.469Z,88.29
2019-02-16T01:03:19.749Z,88.81
2019-02-16T01:05:53.053Z,88.96
2019-02-16T01:08:26.357Z,89.39
2019-02-16T01:10:59.635Z,88.76
2019-02-16T01:13:32.941Z,89.43
2019-02-16T01:16:06.226Z,89.39
2019-02-16T01:18:39.533Z,88.86
2019-02-16T01:21:12.810Z,89.47
2019-02-16T01:23:46.108Z,89.41
2019-02-16T01:26:19.386Z,89.73
2019-02-16T01:28:52.682Z,89.08
2019-02-16T01:31:25.983Z,88.69
2019-02-16T01:33:59.303Z,89.01
2019-02-16T01:36:32.585Z,88.86
2019-02-16T01:39:06.469Z,88.37
2019-02-16T01:41:39.748Z,88.00
2019-02-16T01:44:13.430Z,87.95
2019-02-16T01:46:46.707Z,88.12
2019-02-16T01:49:19.980Z,87.93
2019-02-16T01:51:53.272Z,88.46
2019-02-16T01:54:26.573Z,88.82
2019-02-16T01:56:59.845Z,89.03
2019-02-16T01:59:33.024Z,89.01
2019-02-16T02:02:06.320Z,88.90
2019-02-16T02:04:39.620Z,88.49
2019-02-16T02:07:12.893Z,88.42
2019-02-16T02:09:46.189Z,88.25
2019-02-16T02:12:19.601Z,88.75
2019-02-16T02:14:52.910Z,88.60
2019-02-16T02:17:26.212Z,88.75
2019-02-16T02:20:00.626Z,88.79
2019-02-16T02:22:33.904Z,89.40
2019-02-16T02:25:09.749Z,89.97
2019-02-16T02:27:43.035Z,90.00
2019-02-16T02:30:17.876Z,89.86
2019-02-16T02:32:51.164Z,89.70
2019-02-16T02:35:24.459Z,89.60
2019-02-16T02:37:57.761Z,89.26
2019-02-16T02:40:31.076Z,89.01
2019-02-16T02:43:04.373Z,89.02
2019-02-16T02:45:37.678Z,88.97
2019-02-16T02:48:10.956Z,89.35
2019-02-16T02:50:45.137Z,89.45
2019-02-16T02:53:18.420Z,88.98
2019-02-16T02:55:51.715Z,89.15
2019-02-16T02:58:25.009Z,89.29
2019-02-16T03:00:58.306Z,89.81
2019-02-16T03:03:31.592Z,89.92
2019-02-16T03:06:04.885Z,89.28
2019-02-16T03:08:38.150Z,89.37
2019-02-16T03:11:11.447Z,89.70
2019-02-16T03:13:44.742Z,89.98
2019-02-16T03:16:18.053Z,90.36
2019-02-16T03:18:52.308Z,90.46
2019-02-16T03:21:25.602Z,90.05
2019-02-16T03:23:58.889Z,90.34
2019-02-16T03:26:44.370Z,90.12
2019-02-16T03:29:23.611Z,90.37
2019-02-16T03:32:14.920Z,90.66
2019-02-16T03:34:57.403Z,90.31
2019-02-16T03:37:50.389Z,89.67
2019-02-16T03:40:23.663Z,89.77
2019-02-16T03:42:56.964Z,89.20
2019-02-16T03:45:30.058Z,88.75
2019-02-16T03:48:03.827Z,88.86
2019-02-16T03:50:37.112Z,88.97
2019-02-16T03:53:10.417Z,88.64
2019-02-16T03:55:43.708Z,88.86
2019-02-16T03:58:17.028Z,88.70
2019-02-16T04:00:50.299Z,88.67
2019-02-16T04:03:24.500Z,89.24
2019-02-16T04:05:57.784Z,89.87
2019-02-16T04:08:31.066Z,90.01
2019-02-16T04:11:04.347Z,89.85
2019-02-16T04:13:37.636Z,90.02
2019-02-16T04:16:10.930Z,90.70
2019-02-16T04:18:44.232Z,90.64
2019-02-16T04:21:17.516Z,88.60
2019-02-16T04:23:50.824Z,88.45
2019-02-16T04:26:24.108Z,88.67
2019-02-16T04:28:57.227Z,88.54
2019-02-16T04:31:30.511Z,88.09
2019-02-16T04:34:03.825Z,87.60
2019-02-16T04:36:37.096Z,88.01
2019-02-16T04:39:10.410Z,88.36
2019-02-16T04:41:43.698Z,88.80
2019-02-16T04:44:16.992Z,89.43
2019-02-16T04:46:50.338Z,89.91
2019-02-16T04:49:23.640Z,89.78
2019-02-16T04:51:56.732Z,89.78
2019-02-16T04:54:30.048Z,90.20
2019-02-16T04:57:03.846Z,90.57
2019-02-16T04:59:37.154Z,90.75
2019-02-16T05:02:10.517Z,90.74
2019-02-16T05:04:43.799Z,90.46
2019-02-16T05:07:18.428Z,91.26
2019-02-16T05:09:51.817Z,91.10
2019-02-16T05:12:25.108Z,91.62
2019-02-16T05:14:58.396Z,91.61
2019-02-16T05:17:31.693Z,91.15
2019-02-16T05:20:06.852Z,90.97
2019-02-16T05:22:44.696Z,91.01
2019-02-16T05:25:15.168Z,91.48
2019-02-16T05:27:48.443Z,90.97
2019-02-16T05:30:21.758Z,90.42
2019-02-16T05:32:55.093Z,91.38
2019-02-16T05:35:28.362Z,91.56
2019-02-16T05:38:01.669Z,91.01
2019-02-16T05:40:34.945Z,90.63
2019-02-16T05:43:08.267Z,90.48
2019-02-16T05:45:41.543Z,90.37
2019-02-16T05:48:14.847Z,89.94
2019-02-16T05:50:48.192Z,90.03
2019-02-16T05:53:21.502Z,90.45
2019-02-16T05:55:54.773Z,90.18
2019-02-16T05:58:28.068Z,90.00
2019-02-16T06:01:01.340Z,89.34
2019-02-16T06:03:35.142Z,90.23
2019-02-16T06:06:08.419Z,89.67
2019-02-16T06:08:41.723Z,88.50
2019-02-16T06:11:15.011Z,89.38
2019-02-16T06:13:48.306Z,89.83
2019-02-16T06:16:21.592Z,90.17
2019-02-16T06:18:54.921Z,89.78
2019-02-16T06:21:28.190Z,89.97
2019-02-16T06:24:02.592Z,91.04
2019-02-16T06:26:35.866Z,90.85
2019-02-16T06:29:09.190Z,90.15
2019-02-16T06:31:42.468Z,89.80
2019-02-16T06:34:16.873Z,89.71
2019-02-16T06:36:50.157Z,89.76
2019-02-16T06:39:23.470Z,90.12
2019-02-16T06:41:56.755Z,90.20
2019-02-16T06:44:30.061Z,89.35
2019-02-16T06:47:03.343Z,89.31
2019-02-16T06:49:36.638Z,90.08
2019-02-16T06:52:09.931Z,89.58
2019-02-16T06:54:43.202Z,88.85
2019-02-16T06:57:23.774Z,89.11
2019-02-16T06:59:57.137Z,89.52
2019-02-16T07:02:30.433Z,89.74
2019-02-16T07:05:03.910Z,89.47
2019-02-16T07:07:37.169Z,88.63
2019-02-16T07:10:10.481Z,88.39
2019-02-16T07:12:43.767Z,88.17
2019-02-16T07:15:17.090Z,87.56
2019-02-16T07:18:01.255Z,87.75
2019-02-16T07:20:35.570Z,87.09
2019-02-16T07:23:08.867Z,86.93
2019-02-16T07:25:42.186Z,87.22
2019-02-16T07:28:15.455Z,86.84
2019-02-16T07:30:48.767Z,86.61
2019-02-16T07:33:22.067Z,86.94
2019-02-16T07:35:55.469Z,86.41
2019-02-16T07:38:28.798Z,86.68
2019-02-16T07:41:03.362Z,87.04
2019-02-16T07:43:51.683Z,87.31
2019-02-16T07:46:32.363Z,87.04
2019-02-16T07:49:09.973Z,86.41
2019-02-16T07:51:47.589Z,86.02
2019-02-16T07:54:34.439Z,86.04
2019-02-16T07:57:12.312Z,86.90
2019-02-16T07:59:53.251Z,87.43
2019-02-16T08:02:28.175Z,86.59
2019-02-16T08:05:03.168Z,86.62
2019-02-16T08:07:42.739Z,86.01
2019-02-16T08:10:17.466Z,85.30
2019-02-16T08:13:01.069Z,86.24
2019-02-16T08:15:51.279Z,85.92
2019-02-16T08:18:26.197Z,85.26
2019-02-16T08:21:19.159Z,85.31
2019-02-16T08:24:10.151Z,84.66
2019-02-16T08:26:45.149Z,83.92
2019-02-16T08:29:23.046Z,83.20
2019-02-16T08:31:58.866Z,82.72
2019-02-16T08:34:33.799Z,82.21
2019-02-16T08:37:08.743Z,81.77
2019-02-16T08:39:43.663Z,80.71
2019-02-16T08:42:22.449Z,80.60
2019-02-16T08:45:06.286Z,81.18
2019-02-16T08:47:46.678Z,78.93
2019-02-16T08:50:29.513Z,77.93
2019-02-16T08:53:04.244Z,77.41
2019-02-16T08:55:39.178Z,77.24
2019-02-16T08:58:17.244Z,76.95
2019-02-16T09:00:54.962Z,76.23
2019-02-16T09:03:32.662Z,75.12
2019-02-16T09:06:12.547Z,75.17
2019-02-16T09:08:50.212Z,74.67
2019-02-16T09:11:28.086Z,74.36
2019-02-16T09:14:19.114Z,74.04
2019-02-16T09:17:02.749Z,73.63
2019-02-16T09:19:38.383Z,73.88
2019-02-16T09:22:17.711Z,73.83
2019-02-16T09:25:10.815Z,72.88
2019-02-16T09:27:45.741Z,72.04
2019-02-16T09:30:24.152Z,71.38
2019-02-16T09:32:59.064Z,69.56
2019-02-16T09:35:37.023Z,68.42
2019-02-16T09:38:21.111Z,68.57
2019-02-16T09:40:58.780Z,66.24
2019-02-16T09:43:33.700Z,65.45
2019-02-16T09:46:24.769Z,65.47
2019-02-16T09:49:17.724Z,64.65
2019-02-16T09:52:09.206Z,64.92
2019-02-16T09:54:46.978Z,63.84
2019-02-16T09:57:21.914Z,63.47
2019-02-16T10:00:03.027Z,64.21
2019-02-16T10:02:39.335Z,64.70
2019-02-16T10:05:31.483Z,64.87
2019-02-16T10:08:15.482Z,62.43
2019-02-16T10:10:53.114Z,62.40
2019-02-16T10:13:32.358Z,62.00
2019-02-16T10:16:13.128Z,61.68
2019-02-16T10:19:00.029Z,61.67
2019-02-16T10:21:43.665Z,61.78
2019-02-16T10:24:35.018Z,60.84
2019-02-16T10:27:13.356Z,61.04
2019-02-16T10:29:51.247Z,60.63
2019-02-16T10:32:26.235Z,59.28
2019-02-16T10:35:03.817Z,61.02
2019-02-16T10:37:38.796Z,60.79
2019-02-16T10:40:25.817Z,60.70
2019-02-16T10:43:06.799Z,60.65
2019-02-16T10:45:41.717Z,61.12
2019-02-16T10:48:16.679Z,60.35
2019-02-16T10:50:57.545Z,58.18
2019-02-16T10:53:35.351Z,57.53
2019-02-16T10:56:12.854Z,57.32
2019-02-16T10:58:53.710Z,54.66
2019-02-16T11:01:44.660Z,53.61
2019-02-16T11:04:19.593Z,51.11
2019-02-16T11:06:55.603Z,50.93
2019-02-16T11:09:42.365Z,49.34
2019-02-16T11:12:17.367Z,46.35
2019-02-16T11:14:55.594Z,42.70
2019-02-16T11:17:42.723Z,42.34
2019-02-16T11:20:28.229Z,40.17
2019-02-16T11:23:18.142Z,40.93
2019-02-16T11:26:09.909Z,40.65
2019-02-16T11:28:48.004Z,40.41
2019-02-16T11:31:28.946Z,38.91
2019-02-16T11:34:18.855Z,40.72
2019-02-16T11:36:56.245Z,37.86
2019-02-16T11:39:49.669Z,37.20
2019-02-16T11:42:24.602Z,37.25
2019-02-16T11:45:02.299Z,35.78
2019-02-16T11:47:42.911Z,36.71
2019-02-16T11:50:17.927Z,34.73
2019-02-16T11:53:09.006Z,37.02
2019-02-16T11:55:58.817Z,35.41
2019-02-16T11:58:50.215Z,35.13
2019-02-16T12:01:25.181Z,35.68
2019-02-16T12:04:03.096Z,35.95
2019-02-16T12:06:41.198Z,35.70
2019-02-16T12:09:19.053Z,36.50
2019-02-16T12:11:54.014Z,35.25
2019-02-16T12:14:34.472Z,33.51
2019-02-16T12:17:09.430Z,33.69
2019-02-16T12:19:44.361Z,32.46
2019-02-16T12:22:25.251Z,32.05
2019-02-16T12:25:06.505Z,35.46
2019-02-16T12:27:41.607Z,33.50
2019-02-16T12:30:32.492Z,34.49
2019-02-16T12:33:19.704Z,35.69
2019-02-16T12:36:10.750Z,34.88
2019-02-16T12:38:48.783Z,34.20
2019-02-16T12:41:26.331Z,34.58
2019-02-16T12:44:13.187Z,34.61
2019-02-16T12:47:00.106Z,35.32
2019-02-16T12:49:50.029Z,33.03
2019-02-16T12:52:40.985Z,33.31
2019-02-16T12:55:31.709Z,31.03
2019-02-16T12:58:09.131Z,32.85
2019-02-16T13:00:49.814Z,32.84
2019-02-16T13:03:30.768Z,32.54
2019-02-16T13:06:20.978Z,30.86
2019-02-16T13:09:13.927Z,32.53
2019-02-16T13:11:48.895Z,31.07
2019-02-16T13:14:27.162Z,31.88
2019-02-16T13:17:05.205Z,30.34
2019-02-16T13:19:40.136Z,31.56
2019-02-16T13:22:15.078Z,32.01
2019-02-16T13:25:08.133Z,30.94
2019-02-16T13:27:50.636Z,31.65
2019-02-16T13:30:43.788Z,33.06
2019-02-16T13:33:33.818Z,32.21
2019-02-16T13:36:08.886Z,32.63
2019-02-16T13:38:43.860Z,31.21
2019-02-16T13:41:24.327Z,30.89
2019-02-16T13:44:11.489Z,30.65
2019-02-16T13:46:58.315Z,29.34
2019-02-16T13:49:33.258Z,28.23
2019-02-16T13:52:18.593Z,29.09
2019-02-16T13:54:59.299Z,29.33
2019-02-16T13:57:34.218Z,29.71
2019-02-16T14:00:24.790Z,29.90
2019-02-16T14:03:05.569Z,29.89
2019-02-16T14:05:40.562Z,29.16
2019-02-16T14:08:15.514Z,28.31
2019-02-16T14:10:50.479Z,29.92
2019-02-16T14:13:43.463Z,30.11
2019-02-16T14:16:18.409Z,30.93
2019-02-16T14:18:51.693Z,27.91
2019-02-16T14:21:26.181Z,29.46
2019-02-16T14:23:59.412Z,28.33
2019-02-16T14:26:32.709Z,30.20
2019-02-16T14:29:06.579Z,31.08
2019-02-16T14:31:39.893Z,30.81
2019-02-16T14:34:13.207Z,31.02
2019-02-16T14:36:47.325Z,29.84
2019-02-16T14:39:22.259Z,29.66
2019-02-16T14:41:55.624Z,31.27
2019-02-16T14:44:28.919Z,31.66
2019-02-16T14:47:02.497Z,30.98
2019-02-16T14:49:35.808Z,30.54
2019-02-16T14:52:09.156Z,30.53
2019-02-16T14:54:42.467Z,31.06
2019-02-16T14:57:15.779Z,31.73
2019-02-16T14:59:49.102Z,30.89
2019-02-16T15:02:22.422Z,31.19
2019-02-16T15:04:57.075Z,31.26
2019-02-16T15:07:30.387Z,31.62
2019-02-16T15:10:05.415Z,30.49
2019-02-16T15:12:38.773Z,30.00
2019-02-16T15:15:12.141Z,30.61
2019-02-16T15:17:45.431Z,31.21
2019-02-16T15:20:18.721Z,31.88
2019-02-16T15:22:52.633Z,32.30
2019-02-16T15:25:25.905Z,30.82
2019-02-16T15:27:59.213Z,31.86
2019-02-16T15:30:32.567Z,32.21
2019-02-16T15:33:05.852Z,33.18
2019-02-16T15:35:39.145Z,34.86
2019-02-16T15:38:12.453Z,37.22
2019-02-16T15:40:45.742Z,38.27
2019-02-16T15:43:19.047Z,39.42
2019-02-16T15:45:52.335Z,39.39
2019-02-16T15:48:25.715Z,40.70
2019-02-16T15:50:59.018Z,40.72
2019-02-16T15:53:32.308Z,40.92
2019-02-16T15:56:10.427Z,42.31
2019-02-16T15:58:40.647Z,42.21
2019-02-16T16:01:13.967Z,42.21
2019-02-16T16:03:47.302Z,42.94
2019-02-16T16:06:20.564Z,42.89
2019-02-16T16:09:01.201Z,44.08
2019-02-16T16:11:38.536Z,45.01
2019-02-16T16:14:19.276Z,46.60
2019-02-16T16:17:10.568Z,47.63
2019-02-16T16:19:47.918Z,50.16
2019-02-16T16:22:34.847Z,50.83
2019-02-16T16:25:18.656Z,52.17
2019-02-16T16:27:59.585Z,53.14
2019-02-16T16:30:37.228Z,54.54
2019-02-16T16:33:30.290Z,54.64
2019-02-16T16:36:13.995Z,56.43
2019-02-16T16:39:01.076Z,57.34
2019-02-16T16:41:36.019Z,58.44
2019-02-16T16:44:27.177Z,58.16
2019-02-16T16:47:02.127Z,57.68
2019-02-16T16:49:37.078Z,58.76
2019-02-16T16:52:12.009Z,58.22
2019-02-16T16:54:55.579Z,58.02
2019-02-16T16:57:30.473Z,59.63
2019-02-16T17:00:08.335Z,61.16
2019-02-16T17:02:58.189Z,60.96
2019-02-16T17:05:52.205Z,60.61
2019-02-16T17:08:44.666Z,61.66
2019-02-16T17:11:35.695Z,61.46
2019-02-16T17:14:22.592Z,62.45
2019-02-16T17:17:12.502Z,63.41
2019-02-16T17:19:47.435Z,63.85
2019-02-16T17:22:25.511Z,63.62
2019-02-16T17:25:00.499Z,65.16
2019-02-16T17:27:41.467Z,65.15
2019-02-16T17:30:22.164Z,65.76
2019-02-16T17:33:02.625Z,66.53
2019-02-16T17:35:43.713Z,67.58
2019-02-16T17:38:21.451Z,68.08
2019-02-16T17:40:56.402Z,67.99
2019-02-16T17:43:36.781Z,67.41
2019-02-16T17:46:14.777Z,68.05
2019-02-16T17:48:49.756Z,68.34
2019-02-16T17:51:24.718Z,68.22
2019-02-16T17:54:17.474Z,67.71
2019-02-16T17:57:01.593Z,67.65
2019-02-16T17:59:36.568Z,68.17
2019-02-16T18:02:14.118Z,67.91
2019-02-16T18:05:00.805Z,68.51
2019-02-16T18:07:35.783Z,69.17
2019-02-16T18:10:19.664Z,69.40
2019-02-16T18:12:54.609Z,70.01
2019-02-16T18:15:29.563Z,69.89
2019-02-16T18:18:07.403Z,70.17
2019-02-16T18:20:42.323Z,70.40
2019-02-16T18:23:17.330Z,70.77
2019-02-16T18:25:58.014Z,70.96
2019-02-16T18:28:32.982Z,71.35
2019-02-16T18:31:24.612Z,71.35
2019-02-16T18:34:15.461Z,71.94
2019-02-16T18:36:50.418Z,72.74
2019-02-16T18:39:25.407Z,72.32
2019-02-16T18:42:03.097Z,72.12
2019-02-16T18:44:40.962Z,72.47
2019-02-16T18:47:15.918Z,71.41
2019-02-16T18:49:53.442Z,71.78
2019-02-16T18:52:31.427Z,72.45
2019-02-16T18:55:23.063Z,72.92
2019-02-16T18:58:14.239Z,73.07
2019-02-16T19:00:49.231Z,73.62
2019-02-16T19:03:30.005Z,73.95
2019-02-16T19:06:04.978Z,74.82
2019-02-16T19:08:39.920Z,75.08
2019-02-16T19:11:14.903Z,74.37
2019-02-16T19:13:55.672Z,74.40
2019-02-16T19:16:39.409Z,74.74
2019-02-16T19:19:17.024Z,75.35
2019-02-16T19:22:07.960Z,75.37
2019-02-16T19:24:48.858Z,75.28
2019-02-16T19:27:36.040Z,74.04
2019-02-16T19:30:23.577Z,74.16
2019-02-16T19:33:04.517Z,74.55
2019-02-16T19:35:39.446Z,74.45
2019-02-16T19:38:17.126Z,74.30
2019-02-16T19:41:01.228Z,73.83
2019-02-16T19:43:42.179Z,72.62
2019-02-16T19:46:23.229Z,71.92
2019-02-16T19:49:01.049Z,72.99
2019-02-16T19:51:38.483Z,73.57
2019-02-16T19:54:19.211Z,74.19
2019-02-16T19:56:56.864Z,74.68
2019-02-16T19:59:31.922Z,75.33
2019-02-16T20:02:15.851Z,75.74
2019-02-16T20:04:53.673Z,76.16
2019-02-16T20:07:40.491Z,76.55
2019-02-16T20:10:21.015Z,76.82
2019-02-16T20:13:12.459Z,76.86
2019-02-16T20:15:47.384Z,77.37
2019-02-16T20:18:24.924Z,77.82
2019-02-16T20:21:16.285Z,77.63
2019-02-16T20:24:03.309Z,77.73
2019-02-16T20:26:38.244Z,77.96
2019-02-16T20:29:15.906Z,78.18
2019-02-16T20:32:05.838Z,78.01
2019-02-16T20:34:49.961Z,78.32
2019-02-16T20:37:31.060Z,78.54
2019-02-16T20:40:22.718Z,78.87
2019-02-16T20:43:09.714Z,78.99
2019-02-16T20:45:50.311Z,79.37
2019-02-16T20:48:25.237Z,80.20
2019-02-16T20:51:00.227Z,79.90
2019-02-16T20:53:44.004Z,79.91
2019-02-16T20:56:18.948Z,80.10
2019-02-16T20:58:53.885Z,80.66
2019-02-16T21:01:31.525Z,80.41
2019-02-16T21:04:09.113Z,79.81
2019-02-16T21:06:49.790Z,79.62
2019-02-16T21:09:34.006Z,79.48
2019-02-16T21:12:20.688Z,79.60
2019-02-16T21:14:55.616Z,79.94
2019-02-16T21:17:42.472Z,79.97
2019-02-16T21:20:23.550Z,80.45
2019-02-16T21:22:58.605Z,80.12
2019-02-16T21:25:33.511Z,79.19
2019-02-16T21:28:09.144Z,79.28
2019-02-16T21:30:44.139Z,80.08
2019-02-16T21:33:25.210Z,80.20
2019-02-16T21:36:02.698Z,80.74
2019-02-16T21:38:51.329Z,81.03
2019-02-16T21:41:35.378Z,81.20
2019-02-16T21:44:28.233Z,82.01
2019-02-16T21:47:03.173Z,81.73
2019-02-16T21:49:39.520Z,81.01
2019-02-16T21:52:30.572Z,81.36
2019-02-16T21:55:06.744Z,81.83
2019-02-16T21:57:50.732Z,82.30
2019-02-16T22:00:25.665Z,82.73
2019-02-16T22:03:06.749Z,82.06
2019-02-16T22:05:50.227Z,83.24
2019-02-16T22:08:27.835Z,83.71
2019-02-16T22:11:14.745Z,83.15
2019-02-16T22:13:49.178Z,82.59
2019-02-16T22:16:22.466Z,82.11
2019-02-16T22:18:55.862Z,82.16
2019-02-16T22:21:29.234Z,82.61
2019-02-16T22:24:02.548Z,83.05
2019-02-16T22:26:35.815Z,83.63
2019-02-16T22:29:09.167Z,83.56
2019-02-16T22:31:42.467Z,83.21
2019-02-16T22:34:17.434Z,83.23
2019-02-16T22:36:50.775Z,83.87
2019-02-16T22:39:24.072Z,84.24
2019-02-16T22:41:57.358Z,84.29
2019-02-16T22:44:30.678Z,83.75
2019-02-16T22:47:04.045Z,83.43
2019-02-16T22:49:38.788Z,83.35
2019-02-16T22:52:12.075Z,83.17
2019-02-16T22:54:45.399Z,83.72
2019-02-16T22:57:18.701Z,83.91
2019-02-16T22:59:52.016Z,83.98
2019-02-16T23:02:25.381Z,84.44
2019-02-16T23:04:59.217Z,84.86
2019-02-16T23:07:32.532Z,84.93
2019-02-16T23:10:09.163Z,85.07
2019-02-16T23:12:42.467Z,84.75
2019-02-16T23:15:15.838Z,85.13
2019-02-16T23:17:49.288Z,85.73
2019-02-16T23:20:22.614Z,85.43
2019-02-16T23:22:55.915Z,84.88
2019-02-16T23:25:29.928Z,85.31
2019-02-16T23:28:03.174Z,84.94
2019-02-16T23:30:37.753Z,85.21
2019-02-16T23:33:11.069Z,85.35
2019-02-16T23:35:44.348Z,85.55
2019-02-16T23:38:17.658Z,85.82
2019-02-16T23:40:50.959Z,86.59
2019-02-16T23:43:24.289Z,86.01
2019-02-16T23:45:57.573Z,85.57
2019-02-16T23:48:30.870Z,85.35
2019-02-16T23:51:05.402Z,86.05
2019-02-16T23:53:38.684Z,85.38
2019-02-16T23:56:12.013Z,85.53
2019-02-16T23:58:49.197Z,85.71
